sensor_id;sensor_type;location;lat;lon;timestamp;pressure;altitude;pressure_sealevel;temperature;humidity
56241;BME280;42155;53.096;23.226;2024-01-15T00:01:35;97568.41;;;1.16;79.77
56241;BME280;42155;53.096;23.226;2024-01-15T00:03:38;97586.91;;;1.24;79.74
56241;BME280;42155;53.096;23.226;2024-01-15T00:05:39;97593.31;;;1.32;79.74
56241;BME280;42155;53.096;23.226;2024-01-15T00:07:40;97588.66;;;1.35;79.62
56241;BME280;42155;53.096;23.226;2024-01-15T00:09:40;97575.38;;;1.27;79.41
56241;BME280;42155;53.096;23.226;2024-01-15T00:11:43;97586.75;;;1.37;79.68
56241;BME280;42155;53.096;23.226;2024-01-15T00:13:44;97595.03;;;1.42;80.09
56241;BME280;42155;53.096;23.226;2024-01-15T00:15:48;97585.41;;;1.43;80.26
56241;BME280;42155;53.096;23.226;2024-01-15T00:17:49;97588.88;;;1.43;80.24
56241;BME280;42155;53.096;23.226;2024-01-15T00:19:50;97591.72;;;1.40;80.27
56241;BME280;42155;53.096;23.226;2024-01-15T00:21:53;97580.94;;;1.34;79.99
56241;BME280;42155;53.096;23.226;2024-01-15T00:23:56;97586.50;;;1.40;80.73
56241;BME280;42155;53.096;23.226;2024-01-15T00:25:57;97578.06;;;1.37;80.12
56241;BME280;42155;53.096;23.226;2024-01-15T00:27:57;97576.06;;;1.40;80.32
56241;BME280;42155;53.096;23.226;2024-01-15T00:29:58;97580.56;;;1.38;80.66
56241;BME280;42155;53.096;23.226;2024-01-15T00:31:59;97568.91;;;1.42;80.88
56241;BME280;42155;53.096;23.226;2024-01-15T00:34:01;97574.13;;;1.42;80.45
56241;BME280;42155;53.096;23.226;2024-01-15T00:36:04;97558.97;;;1.36;81.12
56241;BME280;42155;53.096;23.226;2024-01-15T00:38:05;97552.81;;;1.26;81.18
56241;BME280;42155;53.096;23.226;2024-01-15T00:40:06;97563.94;;;1.39;81.16
56241;BME280;42155;53.096;23.226;2024-01-15T00:42:09;97562.75;;;1.43;80.63
56241;BME280;42155;53.096;23.226;2024-01-15T00:44:13;97562.75;;;1.43;81.23
56241;BME280;42155;53.096;23.226;2024-01-15T00:46:16;97547.31;;;1.40;80.85
56241;BME280;42155;53.096;23.226;2024-01-15T00:48:17;97554.31;;;1.40;80.73
56241;BME280;42155;53.096;23.226;2024-01-15T00:50:20;97532.88;;;1.25;81.08
56241;BME280;42155;53.096;23.226;2024-01-15T00:52:24;97531.94;;;1.26;81.22
56241;BME280;42155;53.096;23.226;2024-01-15T00:54:25;97534.63;;;1.36;81.11
56241;BME280;42155;53.096;23.226;2024-01-15T00:56:28;97497.16;;;1.14;81.10
56241;BME280;42155;53.096;23.226;2024-01-15T00:58:29;97544.19;;;1.46;81.30
56241;BME280;42155;53.096;23.226;2024-01-15T01:00:29;97541.13;;;1.41;80.83
56241;BME280;42155;53.096;23.226;2024-01-15T01:02:30;97540.88;;;1.44;81.07
56241;BME280;42155;53.096;23.226;2024-01-15T01:04:31;97523.44;;;1.34;81.10
56241;BME280;42155;53.096;23.226;2024-01-15T01:06:32;97517.41;;;1.33;80.93
56241;BME280;42155;53.096;23.226;2024-01-15T01:08:32;97534.25;;;1.40;81.31
56241;BME280;42155;53.096;23.226;2024-01-15T01:10:33;97532.84;;;1.36;81.49
56241;BME280;42155;53.096;23.226;2024-01-15T01:12:34;97515.88;;;1.31;81.36
56241;BME280;42155;53.096;23.226;2024-01-15T01:14:34;97522.13;;;1.39;81.27
56241;BME280;42155;53.096;23.226;2024-01-15T01:16:35;97510.50;;;1.32;81.30
56241;BME280;42155;53.096;23.226;2024-01-15T01:18:36;97521.75;;;1.44;81.43
56241;BME280;42155;53.096;23.226;2024-01-15T01:20:45;97523.78;;;1.40;81.21
56241;BME280;42155;53.096;23.226;2024-01-15T01:22:49;97507.53;;;1.37;81.17
56241;BME280;42155;53.096;23.226;2024-01-15T01:24:50;97507.28;;;1.40;81.09
56241;BME280;42155;53.096;23.226;2024-01-15T01:26:59;97494.59;;;1.35;80.94
56241;BME280;42155;53.096;23.226;2024-01-15T01:29:00;97490.44;;;1.33;81.45
56241;BME280;42155;53.096;23.226;2024-01-15T01:31:01;97497.22;;;1.35;81.14
56241;BME280;42155;53.096;23.226;2024-01-15T01:33:02;97506.19;;;1.42;81.32
56241;BME280;42155;53.096;23.226;2024-01-15T01:35:04;97502.06;;;1.40;81.66
56241;BME280;42155;53.096;23.226;2024-01-15T01:37:04;97493.41;;;1.39;81.77
56241;BME280;42155;53.096;23.226;2024-01-15T01:39:08;97481.09;;;1.30;81.45
56241;BME280;42155;53.096;23.226;2024-01-15T01:41:09;97485.03;;;1.45;81.51
56241;BME280;42155;53.096;23.226;2024-01-15T01:43:10;97461.84;;;1.31;81.25
56241;BME280;42155;53.096;23.226;2024-01-15T01:45:10;97455.19;;;1.27;81.89
56241;BME280;42155;53.096;23.226;2024-01-15T01:47:12;97481.47;;;1.46;81.76
56241;BME280;42155;53.096;23.226;2024-01-15T01:49:13;97424.84;;;1.15;81.55
56241;BME280;42155;53.096;23.226;2024-01-15T01:51:14;97473.75;;;1.45;81.61
56241;BME280;42155;53.096;23.226;2024-01-15T01:53:15;97465.53;;;1.49;81.59
56241;BME280;42155;53.096;23.226;2024-01-15T01:55:17;97465.41;;;1.51;81.50
56241;BME280;42155;53.096;23.226;2024-01-15T01:57:19;97456.28;;;1.45;81.93
56241;BME280;42155;53.096;23.226;2024-01-15T01:59:20;97458.66;;;1.48;81.78
56241;BME280;42155;53.096;23.226;2024-01-15T02:01:21;97448.00;;;1.40;81.76
56241;BME280;42155;53.096;23.226;2024-01-15T02:03:21;97449.28;;;1.46;81.86
56241;BME280;42155;53.096;23.226;2024-01-15T02:05:22;97444.75;;;1.48;81.39
56241;BME280;42155;53.096;23.226;2024-01-15T02:07:23;97437.56;;;1.40;81.60
56241;BME280;42155;53.096;23.226;2024-01-15T02:09:24;97453.91;;;1.42;81.63
56241;BME280;42155;53.096;23.226;2024-01-15T02:11:24;97444.56;;;1.40;81.38
56241;BME280;42155;53.096;23.226;2024-01-15T02:13:25;97438.50;;;1.39;81.87
56241;BME280;42155;53.096;23.226;2024-01-15T02:15:26;97442.78;;;1.40;81.94
56241;BME280;42155;53.096;23.226;2024-01-15T02:17:26;97446.22;;;1.41;81.24
56241;BME280;42155;53.096;23.226;2024-01-15T02:19:27;97429.84;;;1.39;81.67
56241;BME280;42155;53.096;23.226;2024-01-15T02:21:27;97440.47;;;1.47;81.19
56241;BME280;42155;53.096;23.226;2024-01-15T02:23:27;97426.75;;;1.34;81.46
56241;BME280;42155;53.096;23.226;2024-01-15T02:25:30;97429.38;;;1.34;81.29
56241;BME280;42155;53.096;23.226;2024-01-15T02:27:31;97432.56;;;1.37;81.96
56241;BME280;42155;53.096;23.226;2024-01-15T02:29:31;97439.72;;;1.35;82.11
56241;BME280;42155;53.096;23.226;2024-01-15T02:31:32;97425.00;;;1.34;81.78
56241;BME280;42155;53.096;23.226;2024-01-15T02:33:32;97428.31;;;1.36;81.54
56241;BME280;42155;53.096;23.226;2024-01-15T02:35:33;97425.13;;;1.33;82.24
56241;BME280;42155;53.096;23.226;2024-01-15T02:37:34;97402.31;;;1.14;81.89
56241;BME280;42155;53.096;23.226;2024-01-15T02:39:34;97417.41;;;1.31;81.83
56241;BME280;42155;53.096;23.226;2024-01-15T02:41:35;97428.31;;;1.36;81.95
56241;BME280;42155;53.096;23.226;2024-01-15T02:43:35;97379.53;;;1.16;81.79
56241;BME280;42155;53.096;23.226;2024-01-15T02:45:36;97351.09;;;1.01;82.06
56241;BME280;42155;53.096;23.226;2024-01-15T02:47:36;97413.22;;;1.40;82.56
56241;BME280;42155;53.096;23.226;2024-01-15T02:49:37;97400.63;;;1.34;82.35
56241;BME280;42155;53.096;23.226;2024-01-15T02:51:38;97402.44;;;1.33;81.77
56241;BME280;42155;53.096;23.226;2024-01-15T02:53:38;97388.69;;;1.31;82.11
56241;BME280;42155;53.096;23.226;2024-01-15T02:55:39;97379.25;;;1.19;82.24
56241;BME280;42155;53.096;23.226;2024-01-15T02:57:41;97373.78;;;1.22;82.14
56241;BME280;42155;53.096;23.226;2024-01-15T02:59:42;97393.81;;;1.42;82.38
56241;BME280;42155;53.096;23.226;2024-01-15T03:01:42;97392.03;;;1.43;82.44
56241;BME280;42155;53.096;23.226;2024-01-15T03:03:43;97382.94;;;1.37;82.30
56241;BME280;42155;53.096;23.226;2024-01-15T03:05:43;97387.56;;;1.34;82.64
56241;BME280;42155;53.096;23.226;2024-01-15T03:07:44;97379.88;;;1.32;81.95
56241;BME280;42155;53.096;23.226;2024-01-15T03:09:44;97382.94;;;1.37;82.76
56241;BME280;42155;53.096;23.226;2024-01-15T03:11:44;97394.09;;;1.39;82.32
56241;BME280;42155;53.096;23.226;2024-01-15T03:13:45;97382.94;;;1.37;82.03
56241;BME280;42155;53.096;23.226;2024-01-15T03:15:46;97376.28;;;1.33;82.17
56241;BME280;42155;53.096;23.226;2024-01-15T03:17:46;97369.56;;;1.31;81.86
56241;BME280;42155;53.096;23.226;2024-01-15T03:19:47;97368.22;;;1.36;82.42
56241;BME280;42155;53.096;23.226;2024-01-15T03:21:48;97355.69;;;1.30;82.10
56241;BME280;42155;53.096;23.226;2024-01-15T03:23:49;97343.94;;;1.24;82.01
56241;BME280;42155;53.096;23.226;2024-01-15T03:25:49;97366.56;;;1.35;81.77
56241;BME280;42155;53.096;23.226;2024-01-15T03:27:50;97364.19;;;1.32;82.50
56241;BME280;42155;53.096;23.226;2024-01-15T03:29:50;97357.75;;;1.36;82.42
56241;BME280;42155;53.096;23.226;2024-01-15T03:31:51;97347.44;;;1.35;81.79
56241;BME280;42155;53.096;23.226;2024-01-15T03:33:51;97352.41;;;1.38;81.73
56241;BME280;42155;53.096;23.226;2024-01-15T03:35:52;97324.56;;;1.27;82.05
56241;BME280;42155;53.096;23.226;2024-01-15T03:37:53;97344.16;;;1.42;82.15
56241;BME280;42155;53.096;23.226;2024-01-15T03:39:54;97347.59;;;1.43;82.51
56241;BME280;42155;53.096;23.226;2024-01-15T03:41:55;97301.59;;;1.21;82.06
56241;BME280;42155;53.096;23.226;2024-01-15T03:43:55;97337.81;;;1.35;81.96
56241;BME280;42155;53.096;23.226;2024-01-15T03:45:56;97335.22;;;1.35;82.13
56241;BME280;42155;53.096;23.226;2024-01-15T03:47:57;97278.81;;;1.02;82.25
56241;BME280;42155;53.096;23.226;2024-01-15T03:49:58;97325.16;;;1.31;82.07
56241;BME280;42155;53.096;23.226;2024-01-15T03:52:01;97295.47;;;1.11;82.60
56241;BME280;42155;53.096;23.226;2024-01-15T03:54:01;97321.31;;;1.35;82.45
56241;BME280;42155;53.096;23.226;2024-01-15T03:56:02;97315.81;;;1.38;82.37
56241;BME280;42155;53.096;23.226;2024-01-15T03:58:02;97300.41;;;1.35;81.78
56241;BME280;42155;53.096;23.226;2024-01-15T04:00:03;97292.69;;;1.33;81.60
56241;BME280;42155;53.096;23.226;2024-01-15T04:02:04;97312.25;;;1.39;81.36
56241;BME280;42155;53.096;23.226;2024-01-15T04:04:04;97283.41;;;1.19;81.90
56241;BME280;42155;53.096;23.226;2024-01-15T04:06:05;97311.69;;;1.35;82.25
56241;BME280;42155;53.096;23.226;2024-01-15T04:08:05;97286.22;;;1.27;82.26
56241;BME280;42155;53.096;23.226;2024-01-15T04:10:06;97286.78;;;1.31;81.93
56241;BME280;42155;53.096;23.226;2024-01-15T04:12:07;97308.50;;;1.32;82.35
56241;BME280;42155;53.096;23.226;2024-01-15T04:14:07;97290.44;;;1.19;82.07
56241;BME280;42155;53.096;23.226;2024-01-15T04:16:08;97305.06;;;1.31;81.82
56241;BME280;42155;53.096;23.226;2024-01-15T04:18:08;97294.28;;;1.24;82.46
56241;BME280;42155;53.096;23.226;2024-01-15T04:20:10;97292.97;;;1.30;82.53
56241;BME280;42155;53.096;23.226;2024-01-15T04:22:10;97266.91;;;1.19;82.10
56241;BME280;42155;53.096;23.226;2024-01-15T04:24:11;97279.22;;;1.38;82.26
56241;BME280;42155;53.096;23.226;2024-01-15T04:26:11;97250.28;;;1.20;81.87
56241;BME280;42155;53.096;23.226;2024-01-15T04:28:12;97266.41;;;1.25;82.12
56241;BME280;42155;53.096;23.226;2024-01-15T04:30:13;97264.09;;;1.32;82.00
56241;BME280;42155;53.096;23.226;2024-01-15T04:32:13;97255.69;;;1.28;81.83
56241;BME280;42155;53.096;23.226;2024-01-15T04:34:14;97243.41;;;1.19;82.25
56241;BME280;42155;53.096;23.226;2024-01-15T04:36:15;97264.78;;;1.34;82.20
56241;BME280;42155;53.096;23.226;2024-01-15T04:38:16;97278.16;;;1.40;81.87
56241;BME280;42155;53.096;23.226;2024-01-15T04:40:16;97272.09;;;1.40;81.86
56241;BME280;42155;53.096;23.226;2024-01-15T04:42:17;97274.81;;;1.38;82.24
56241;BME280;42155;53.096;23.226;2024-01-15T04:44:18;97260.50;;;1.33;81.60
56241;BME280;42155;53.096;23.226;2024-01-15T04:46:19;97268.66;;;1.39;82.29
56241;BME280;42155;53.096;23.226;2024-01-15T04:48:19;97265.91;;;1.41;81.81
56241;BME280;42155;53.096;23.226;2024-01-15T04:50:20;97272.94;;;1.40;81.44
56241;BME280;42155;53.096;23.226;2024-01-15T04:52:21;97265.50;;;1.36;81.85
56241;BME280;42155;53.096;23.226;2024-01-15T04:54:21;97269.88;;;1.35;81.40
56241;BME280;42155;53.096;23.226;2024-01-15T04:56:21;97226.59;;;1.02;81.70
56241;BME280;42155;53.096;23.226;2024-01-15T04:58:22;97241.38;;;1.22;82.17
56241;BME280;42155;53.096;23.226;2024-01-15T05:00:22;97247.03;;;1.27;82.03
56241;BME280;42155;53.096;23.226;2024-01-15T05:02:25;97256.66;;;1.27;81.82
56241;BME280;42155;53.096;23.226;2024-01-15T05:04:25;97233.53;;;1.22;81.90
56241;BME280;42155;53.096;23.226;2024-01-15T05:06:26;97252.03;;;1.40;81.77
56241;BME280;42155;53.096;23.226;2024-01-15T05:08:27;97254.63;;;1.40;82.02
56241;BME280;42155;53.096;23.226;2024-01-15T05:10:32;97216.31;;;1.20;81.47
56241;BME280;42155;53.096;23.226;2024-01-15T05:12:33;97233.31;;;1.35;81.11
56241;BME280;42155;53.096;23.226;2024-01-15T05:14:38;97211.56;;;1.25;81.32
56241;BME280;42155;53.096;23.226;2024-01-15T05:16:40;97204.81;;;1.22;80.96
56241;BME280;42155;53.096;23.226;2024-01-15T05:18:40;97222.44;;;1.30;81.28
56241;BME280;42155;53.096;23.226;2024-01-15T05:20:41;97231.13;;;1.40;80.81
56241;BME280;42155;53.096;23.226;2024-01-15T05:22:41;97233.59;;;1.42;81.03
56241;BME280;42155;53.096;23.226;2024-01-15T05:24:42;97204.16;;;1.30;80.73
56241;BME280;42155;53.096;23.226;2024-01-15T05:26:42;97230.16;;;1.41;81.47
56241;BME280;42155;53.096;23.226;2024-01-15T05:28:43;97192.25;;;1.07;80.96
56241;BME280;42155;53.096;23.226;2024-01-15T05:30:43;97221.34;;;1.42;80.89
56241;BME280;42155;53.096;23.226;2024-01-15T05:32:44;97183.16;;;1.11;80.96
56241;BME280;42155;53.096;23.226;2024-01-15T05:34:50;97210.75;;;1.34;81.18
56241;BME280;42155;53.096;23.226;2024-01-15T05:36:51;97215.59;;;1.39;81.22
56241;BME280;42155;53.096;23.226;2024-01-15T05:38:51;97181.28;;;1.22;80.95
56241;BME280;42155;53.096;23.226;2024-01-15T05:40:51;97208.16;;;1.34;80.90
56241;BME280;42155;53.096;23.226;2024-01-15T05:42:52;97184.31;;;1.27;80.74
56241;BME280;42155;53.096;23.226;2024-01-15T05:44:53;97104.47;;;0.75;80.98
56241;BME280;42155;53.096;23.226;2024-01-15T05:47:01;97207.59;;;1.40;80.47
56241;BME280;42155;53.096;23.226;2024-01-15T05:49:02;97192.59;;;1.33;80.67
56241;BME280;42155;53.096;23.226;2024-01-15T05:51:07;97205.25;;;1.37;81.28
56241;BME280;42155;53.096;23.226;2024-01-15T05:53:08;97151.00;;;1.10;81.13
56241;BME280;42155;53.096;23.226;2024-01-15T05:55:11;97192.19;;;1.37;81.22
56241;BME280;42155;53.096;23.226;2024-01-15T05:57:12;97194.78;;;1.37;80.77
56241;BME280;42155;53.096;23.226;2024-01-15T05:59:17;97192.47;;;1.34;81.42
56241;BME280;42155;53.096;23.226;2024-01-15T06:01:18;97161.75;;;1.17;81.29
56241;BME280;42155;53.096;23.226;2024-01-15T06:03:18;97179.41;;;1.34;81.60
56241;BME280;42155;53.096;23.226;2024-01-15T06:05:19;97100.22;;;0.74;81.27
56241;BME280;42155;53.096;23.226;2024-01-15T06:07:19;97179.50;;;1.23;81.66
56241;BME280;42155;53.096;23.226;2024-01-15T06:09:20;97172.19;;;1.07;81.77
56241;BME280;42155;53.096;23.226;2024-01-15T06:11:21;97201.66;;;1.28;81.72
56241;BME280;42155;53.096;23.226;2024-01-15T06:13:22;97208.38;;;1.21;81.63
56241;BME280;42155;53.096;23.226;2024-01-15T06:15:23;97200.16;;;1.26;81.44
56241;BME280;42155;53.096;23.226;2024-01-15T06:17:24;97184.59;;;1.24;81.24
56241;BME280;42155;53.096;23.226;2024-01-15T06:19:27;97170.50;;;1.06;81.80
56241;BME280;42155;53.096;23.226;2024-01-15T06:21:28;97188.03;;;1.25;81.63
56241;BME280;42155;53.096;23.226;2024-01-15T06:23:29;97170.81;;;1.13;81.53
56241;BME280;42155;53.096;23.226;2024-01-15T06:25:30;97160.38;;;1.13;81.10
56241;BME280;42155;53.096;23.226;2024-01-15T06:27:33;97172.06;;;1.18;81.42
56241;BME280;42155;53.096;23.226;2024-01-15T06:29:37;97185.84;;;1.30;81.87
56241;BME280;42155;53.096;23.226;2024-01-15T06:31:44;97183.94;;;1.32;81.92
56241;BME280;42155;53.096;23.226;2024-01-15T06:33:45;97187.34;;;1.33;81.01
56241;BME280;42155;53.096;23.226;2024-01-15T06:35:45;97139.72;;;1.10;81.58
56241;BME280;42155;53.096;23.226;2024-01-15T06:37:46;97175.25;;;1.32;81.31
56241;BME280;42155;53.096;23.226;2024-01-15T06:39:46;97165.34;;;1.25;81.51
56241;BME280;42155;53.096;23.226;2024-01-15T06:41:47;97155.72;;;1.16;81.09
56241;BME280;42155;53.096;23.226;2024-01-15T06:43:48;97157.53;;;1.25;81.34
56241;BME280;42155;53.096;23.226;2024-01-15T06:45:52;97167.56;;;1.30;81.57
56241;BME280;42155;53.096;23.226;2024-01-15T06:47:52;97150.22;;;1.29;81.69
56241;BME280;42155;53.096;23.226;2024-01-15T06:49:53;97162.63;;;1.37;81.25
56241;BME280;42155;53.096;23.226;2024-01-15T06:51:53;97165.09;;;1.38;81.33
56241;BME280;42155;53.096;23.226;2024-01-15T06:53:53;97161.78;;;1.36;81.11
56241;BME280;42155;53.096;23.226;2024-01-15T06:55:56;97180.50;;;1.41;81.75
56241;BME280;42155;53.096;23.226;2024-01-15T06:57:57;97098.75;;;1.00;81.70
56241;BME280;42155;53.096;23.226;2024-01-15T06:59:58;97167.84;;;1.37;81.38
56241;BME280;42155;53.096;23.226;2024-01-15T07:01:58;97158.22;;;1.37;81.37
56241;BME280;42155;53.096;23.226;2024-01-15T07:04:00;97128.78;;;1.16;81.62
56241;BME280;42155;53.096;23.226;2024-01-15T07:06:01;97141.97;;;1.24;82.22
56241;BME280;42155;53.096;23.226;2024-01-15T07:08:01;97136.31;;;1.19;81.80
56241;BME280;42155;53.096;23.226;2024-01-15T07:10:02;97113.63;;;1.10;82.60
56241;BME280;42155;53.096;23.226;2024-01-15T07:12:03;97105.94;;;1.08;82.05
56241;BME280;42155;53.096;23.226;2024-01-15T07:14:05;97146.38;;;1.33;82.25
56241;BME280;42155;53.096;23.226;2024-01-15T07:16:05;97139.50;;;1.32;82.46
56241;BME280;42155;53.096;23.226;2024-01-15T07:18:06;97141.31;;;1.32;82.81
56241;BME280;42155;53.096;23.226;2024-01-15T07:20:07;97102.91;;;1.13;82.40
56241;BME280;42155;53.096;23.226;2024-01-15T07:22:07;97151.59;;;1.33;82.85
56241;BME280;42155;53.096;23.226;2024-01-15T07:24:11;97104.16;;;1.18;82.84
56241;BME280;42155;53.096;23.226;2024-01-15T07:26:15;97120.81;;;1.27;82.39
56241;BME280;42155;53.096;23.226;2024-01-15T07:28:16;97129.06;;;1.32;82.51
56241;BME280;42155;53.096;23.226;2024-01-15T07:30:50;97131.66;;;1.32;82.98
56241;BME280;42155;53.096;23.226;2024-01-15T07:32:50;97133.47;;;1.32;82.89
56241;BME280;42155;53.096;23.226;2024-01-15T07:34:51;97118.03;;;1.19;82.93
56241;BME280;42155;53.096;23.226;2024-01-15T07:36:53;97113.09;;;1.16;82.56
56241;BME280;42155;53.096;23.226;2024-01-15T07:38:53;97116.66;;;1.15;82.97
56241;BME280;42155;53.096;23.226;2024-01-15T07:40:54;97132.34;;;1.24;83.16
56241;BME280;42155;53.096;23.226;2024-01-15T07:42:58;97129.88;;;1.23;83.28
56241;BME280;42155;53.096;23.226;2024-01-15T07:44:58;97126.44;;;1.22;82.85
56241;BME280;42155;53.096;23.226;2024-01-15T07:46:58;97121.06;;;1.24;83.29
56241;BME280;42155;53.096;23.226;2024-01-15T07:48:59;97134.13;;;1.24;82.85
56241;BME280;42155;53.096;23.226;2024-01-15T07:50:59;97137.72;;;1.23;83.35
56241;BME280;42155;53.096;23.226;2024-01-15T07:53:00;97140.47;;;1.31;83.02
56241;BME280;42155;53.096;23.226;2024-01-15T07:55:00;97135.09;;;1.33;83.30
56241;BME280;42155;53.096;23.226;2024-01-15T07:57:02;97108.13;;;1.13;82.98
56241;BME280;42155;53.096;23.226;2024-01-15T07:59:03;97140.06;;;1.36;82.46
56241;BME280;42155;53.096;23.226;2024-01-15T08:01:03;97107.31;;;1.22;82.51
56241;BME280;42155;53.096;23.226;2024-01-15T08:03:04;97128.81;;;1.35;82.73
56241;BME280;42155;53.096;23.226;2024-01-15T08:05:05;97093.84;;;1.07;82.91
56241;BME280;42155;53.096;23.226;2024-01-15T08:07:06;97129.06;;;1.32;82.57
56241;BME280;42155;53.096;23.226;2024-01-15T08:09:06;97130.44;;;1.36;83.06
56241;BME280;42155;53.096;23.226;2024-01-15T08:11:09;97103.16;;;1.10;82.67
56241;BME280;42155;53.096;23.226;2024-01-15T08:13:10;97132.09;;;1.37;82.93
56241;BME280;42155;53.096;23.226;2024-01-15T08:15:14;97134.69;;;1.37;82.47
56241;BME280;42155;53.096;23.226;2024-01-15T08:17:14;97113.94;;;1.26;82.76
56241;BME280;42155;53.096;23.226;2024-01-15T08:19:15;97103.75;;;1.23;83.06
56241;BME280;42155;53.096;23.226;2024-01-15T08:21:16;97085.88;;;1.18;83.02
56241;BME280;42155;53.096;23.226;2024-01-15T08:23:17;97099.34;;;1.43;82.21
56241;BME280;42155;53.096;23.226;2024-01-15T08:25:17;97114.78;;;1.36;82.97
56241;BME280;42155;53.096;23.226;2024-01-15T08:27:18;97090.56;;;1.34;82.63
56241;BME280;42155;53.096;23.226;2024-01-15T08:29:20;97073.38;;;1.22;82.66
56241;BME280;42155;53.096;23.226;2024-01-15T08:31:26;96969.25;;;0.69;82.70
56241;BME280;42155;53.096;23.226;2024-01-15T08:33:26;97068.28;;;1.30;82.17
56241;BME280;42155;53.096;23.226;2024-01-15T08:35:27;97080.81;;;1.56;82.29
56241;BME280;42155;53.096;23.226;2024-01-15T08:37:27;97089.75;;;1.63;81.88
56241;BME280;42155;53.096;23.226;2024-01-15T08:39:27;97091.13;;;1.67;82.11
56241;BME280;42155;53.096;23.226;2024-01-15T08:41:38;97053.19;;;1.43;82.15
56241;BME280;42155;53.096;23.226;2024-01-15T08:43:38;97043.97;;;1.39;82.28
56241;BME280;42155;53.096;23.226;2024-01-15T08:45:39;97063.06;;;1.59;81.62
56241;BME280;42155;53.096;23.226;2024-01-15T08:47:48;97090.97;;;1.78;81.26
56241;BME280;42155;53.096;23.226;2024-01-15T08:49:52;97009.72;;;1.23;81.58
56241;BME280;42155;53.096;23.226;2024-01-15T08:51:53;97068.44;;;1.58;81.25
56241;BME280;42155;53.096;23.226;2024-01-15T08:53:53;97038.84;;;1.28;81.46
56241;BME280;42155;53.096;23.226;2024-01-15T08:55:54;97067.47;;;1.59;81.54
56241;BME280;42155;53.096;23.226;2024-01-15T08:57:54;97083.81;;;1.80;82.08
56241;BME280;42155;53.096;23.226;2024-01-15T08:59:54;97056.72;;;1.62;81.64
56241;BME280;42155;53.096;23.226;2024-01-15T09:01:55;97035.28;;;1.48;81.97
56241;BME280;42155;53.096;23.226;2024-01-15T09:03:56;97089.75;;;1.82;81.70
56241;BME280;42155;53.096;23.226;2024-01-15T09:05:57;97082.16;;;1.79;81.25
56241;BME280;42155;53.096;23.226;2024-01-15T09:08:00;97092.50;;;1.81;81.71
56241;BME280;42155;53.096;23.226;2024-01-15T09:10:00;97080.78;;;1.65;81.89
56241;BME280;42155;53.096;23.226;2024-01-15T09:12:00;97082.72;;;1.73;82.00
56241;BME280;42155;53.096;23.226;2024-01-15T09:14:01;97074.31;;;1.69;81.59
56241;BME280;42155;53.096;23.226;2024-01-15T09:16:02;97076.78;;;1.71;81.37
56241;BME280;42155;53.096;23.226;2024-01-15T09:18:02;97063.63;;;1.63;81.75
56241;BME280;42155;53.096;23.226;2024-01-15T09:20:03;97079.84;;;1.76;82.05
56241;BME280;42155;53.096;23.226;2024-01-15T09:22:09;97054.81;;;1.64;82.13
56241;BME280;42155;53.096;23.226;2024-01-15T09:24:10;97063.72;;;1.71;81.73
56241;BME280;42155;53.096;23.226;2024-01-15T09:26:10;97086.56;;;1.78;81.49
56241;BME280;42155;53.096;23.226;2024-01-15T09:28:11;97048.47;;;1.66;81.92
56241;BME280;42155;53.096;23.226;2024-01-15T09:30:11;97029.34;;;1.56;81.82
56241;BME280;42155;53.096;23.226;2024-01-15T09:32:12;97058.94;;;1.76;82.19
56241;BME280;42155;53.096;23.226;2024-01-15T09:34:13;97028.66;;;1.64;82.02
56241;BME280;42155;53.096;23.226;2024-01-15T09:36:13;97045.44;;;1.71;81.55
56241;BME280;42155;53.096;23.226;2024-01-15T09:38:14;97064.41;;;1.83;81.67
56241;BME280;42155;53.096;23.226;2024-01-15T09:40:15;97059.47;;;1.70;81.47
56241;BME280;42155;53.096;23.226;2024-01-15T09:42:19;97025.78;;;1.47;81.59
56241;BME280;42155;53.096;23.226;2024-01-15T09:44:23;97069.38;;;1.66;82.31
56241;BME280;42155;53.096;23.226;2024-01-15T09:46:24;97064.44;;;1.63;81.91
56241;BME280;42155;53.096;23.226;2024-01-15T09:48:24;97054.00;;;1.53;81.98
56241;BME280;42155;53.096;23.226;2024-01-15T09:50:26;97057.69;;;1.61;82.04
56241;BME280;42155;53.096;23.226;2024-01-15T09:52:26;97044.47;;;1.52;82.55
56241;BME280;42155;53.096;23.226;2024-01-15T09:54:29;97074.88;;;1.63;82.07
56241;BME280;42155;53.096;23.226;2024-01-15T09:56:31;97060.72;;;1.66;82.50
56241;BME280;42155;53.096;23.226;2024-01-15T09:58:32;97046.25;;;1.62;82.10
56241;BME280;42155;53.096;23.226;2024-01-15T10:00:34;97061.97;;;1.71;82.16
56241;BME280;42155;53.096;23.226;2024-01-15T10:02:35;97053.41;;;1.69;81.54
56241;BME280;42155;53.096;23.226;2024-01-15T10:04:36;97027.84;;;1.53;81.86
56241;BME280;42155;53.096;23.226;2024-01-15T10:06:37;97056.44;;;1.65;81.98
56241;BME280;42155;53.096;23.226;2024-01-15T10:08:41;97040.22;;;1.51;81.66
56241;BME280;42155;53.096;23.226;2024-01-15T10:10:42;97015.47;;;1.36;81.84
56241;BME280;42155;53.096;23.226;2024-01-15T10:12:42;96999.81;;;1.36;81.89
56241;BME280;42155;53.096;23.226;2024-01-15T10:14:43;97062.22;;;1.68;81.87
56241;BME280;42155;53.096;23.226;2024-01-15T10:16:43;97024.28;;;1.45;81.52
56241;BME280;42155;53.096;23.226;2024-01-15T10:18:44;97026.06;;;1.44;81.28
56241;BME280;42155;53.096;23.226;2024-01-15T10:20:44;97044.63;;;1.61;81.78
56241;BME280;42155;53.096;23.226;2024-01-15T10:22:47;96998.69;;;1.29;81.78
56241;BME280;42155;53.096;23.226;2024-01-15T10:24:48;97056.59;;;1.53;81.35
56241;BME280;42155;53.096;23.226;2024-01-15T10:26:49;97049.44;;;1.56;81.84
56241;BME280;42155;53.096;23.226;2024-01-15T10:28:52;97031.00;;;1.47;82.09
56241;BME280;42155;53.096;23.226;2024-01-15T10:30:57;97037.19;;;1.56;82.09
56241;BME280;42155;53.096;23.226;2024-01-15T10:33:02;97028.38;;;1.47;81.59
56241;BME280;42155;53.096;23.226;2024-01-15T10:35:04;97040.38;;;1.60;82.18
56241;BME280;42155;53.096;23.226;2024-01-15T10:37:04;97049.59;;;1.54;81.56
56241;BME280;42155;53.096;23.226;2024-01-15T10:39:06;97029.38;;;1.46;81.34
56241;BME280;42155;53.096;23.226;2024-01-15T10:41:06;97046.81;;;1.56;81.84
56241;BME280;42155;53.096;23.226;2024-01-15T10:43:08;97008.63;;;1.25;82.08